sensor_id;sensor_type;location;lat;lon;timestamp;pressure;altitude;pressure_sealevel;temperature;humidity
20394;BME280;10356;50.544;9.642;2022-10-13T00:00:11;98816.97;;;7.25;100.00
20394;BME280;10356;50.544;9.642;2022-10-13T00:02:37;98811.44;;;7.15;100.00
20394;BME280;10356;50.544;9.642;2022-10-13T00:05:04;98817.72;;;7.11;100.00
20394;BME280;10356;50.544;9.642;2022-10-13T00:07:31;98817.16;;;7.06;100.00
20394;BME280;10356;50.544;9.642;2022-10-13T00:09:57;98811.34;;;7.01;100.00
20394;BME280;10356;50.544;9.642;2022-10-13T00:12:24;98817.72;;;6.96;100.00
20394;BME280;10356;50.544;9.642;2022-10-13T00:14:51;98817.94;;;6.91;100.00
20394;BME280;10356;50.544;9.642;2022-10-13T00:17:18;98819.22;;;6.84;100.00
20394;BME280;10356;50.544;9.642;2022-10-13T00:19:44;98816.94;;;6.78;100.00
20394;BME280;10356;50.544;9.642;2022-10-13T00:22:11;98806.91;;;6.72;100.00
20394;BME280;10356;50.544;9.642;2022-10-13T00:24:37;98818.94;;;6.73;100.00
20394;BME280;10356;50.544;9.642;2022-10-13T00:27:04;98812.25;;;6.69;100.00
20394;BME280;10356;50.544;9.642;2022-10-13T00:29:30;98808.16;;;6.65;100.00
20394;BME280;10356;50.544;9.642;2022-10-13T00:31:58;98811.50;;;6.67;100.00
20394;BME280;10356;50.544;9.642;2022-10-13T00:34:25;98811.34;;;6.70;100.00
20394;BME280;10356;50.544;9.642;2022-10-13T00:36:51;98805.31;;;6.69;100.00
20394;BME280;10356;50.544;9.642;2022-10-13T00:39:17;98805.97;;;6.73;100.00
20394;BME280;10356;50.544;9.642;2022-10-13T00:41:44;98807.81;;;6.71;100.00
20394;BME280;10356;50.544;9.642;2022-10-13T00:47:12;98789.63;;;6.72;100.00
20394;BME280;10356;50.544;9.642;2022-10-13T00:49:38;98789.69;;;6.71;100.00
20394;BME280;10356;50.544;9.642;2022-10-13T00:52:05;98799.06;;;6.73;100.00
20394;BME280;10356;50.544;9.642;2022-10-13T00:54:31;98805.84;;;6.76;100.00
20394;BME280;10356;50.544;9.642;2022-10-13T00:56:58;98797.75;;;6.82;100.00
20394;BME280;10356;50.544;9.642;2022-10-13T00:59:26;98797.84;;;6.81;100.00
20394;BME280;10356;50.544;9.642;2022-10-13T01:01:53;98801.22;;;6.81;100.00
20394;BME280;10356;50.544;9.642;2022-10-13T01:04:24;98794.22;;;6.83;100.00
20394;BME280;10356;50.544;9.642;2022-10-13T01:06:52;98788.03;;;6.86;100.00
20394;BME280;10356;50.544;9.642;2022-10-13T01:09:20;98795.91;;;6.84;100.00
20394;BME280;10356;50.544;9.642;2022-10-13T01:11:59;98797.75;;;6.82;100.00
20394;BME280;10356;50.544;9.642;2022-10-13T01:14:31;98803.06;;;6.79;100.00
20394;BME280;10356;50.544;9.642;2022-10-13T01:17:04;98801.56;;;6.75;100.00
20394;BME280;10356;50.544;9.642;2022-10-13T01:19:57;98801.56;;;6.75;100.00
20394;BME280;10356;50.544;9.642;2022-10-13T01:22:46;98792.88;;;6.76;100.00
20394;BME280;10356;50.544;9.642;2022-10-13T01:25:45;98788.56;;;6.76;100.00
20394;BME280;10356;50.544;9.642;2022-10-13T01:28:32;98785.03;;;6.77;100.00
20394;BME280;10356;50.544;9.642;2022-10-13T01:31:08;98793.56;;;6.79;100.00
20394;BME280;10356;50.544;9.642;2022-10-13T01:33:42;98789.03;;;6.83;100.00
20394;BME280;10356;50.544;9.642;2022-10-13T01:36:18;98785.63;;;6.83;100.00
20394;BME280;10356;50.544;9.642;2022-10-13T01:38:53;98775.19;;;6.84;100.00
20394;BME280;10356;50.544;9.642;2022-10-13T01:41:25;98768.06;;;6.88;100.00
20394;BME280;10356;50.544;9.642;2022-10-13T01:43:59;98761.16;;;6.88;100.00
20394;BME280;10356;50.544;9.642;2022-10-13T01:46:31;98763.50;;;6.93;100.00
20394;BME280;10356;50.544;9.642;2022-10-13T01:49:03;98765.06;;;6.95;100.00
20394;BME280;10356;50.544;9.642;2022-10-13T01:51:31;98770.00;;;7.00;100.00
20394;BME280;10356;50.544;9.642;2022-10-13T01:53:58;98761.13;;;7.04;100.00
20394;BME280;10356;50.544;9.642;2022-10-13T01:56:25;98759.31;;;7.06;100.00
20394;BME280;10356;50.544;9.642;2022-10-13T01:58:52;98760.91;;;7.08;100.00
20394;BME280;10356;50.544;9.642;2022-10-13T02:01:33;98752.13;;;7.11;100.00
20394;BME280;10356;50.544;9.642;2022-10-13T02:04:14;98752.13;;;7.11;100.00
20394;BME280;10356;50.544;9.642;2022-10-13T02:06:45;98750.44;;;7.10;100.00
20394;BME280;10356;50.544;9.642;2022-10-13T02:09:18;98757.78;;;7.17;100.00
20394;BME280;10356;50.544;9.642;2022-10-13T02:11:50;98753.69;;;7.13;100.00
20394;BME280;10356;50.544;9.642;2022-10-13T02:14:21;98758.06;;;7.13;100.00
20394;BME280;10356;50.544;9.642;2022-10-13T02:16:52;98749.44;;;7.12;100.00
20394;BME280;10356;50.544;9.642;2022-10-13T02:19:21;98753.69;;;7.13;100.00
20394;BME280;10356;50.544;9.642;2022-10-13T02:21:48;98755.28;;;7.16;100.00
20394;BME280;10356;50.544;9.642;2022-10-13T02:24:15;98756.03;;;7.18;100.00
20394;BME280;10356;50.544;9.642;2022-10-13T02:26:42;98750.75;;;7.19;100.00
20394;BME280;10356;50.544;9.642;2022-10-13T02:29:09;98745.66;;;7.18;100.00
20394;BME280;10356;50.544;9.642;2022-10-13T02:31:37;98742.41;;;7.14;100.00
20394;BME280;10356;50.544;9.642;2022-10-13T02:34:06;98731.13;;;7.15;100.00
20394;BME280;10356;50.544;9.642;2022-10-13T02:36:33;98738.22;;;7.12;100.00
20394;BME280;10356;50.544;9.642;2022-10-13T02:38:59;98736.38;;;7.14;100.00
20394;BME280;10356;50.544;9.642;2022-10-13T02:41:26;98740.41;;;7.04;100.00
20394;BME280;10356;50.544;9.642;2022-10-13T02:43:52;98740.59;;;7.01;100.00
20394;BME280;10356;50.544;9.642;2022-10-13T02:46:19;98741.41;;;7.01;100.00
20394;BME280;10356;50.544;9.642;2022-10-13T02:48:46;98734.56;;;7.00;100.00
20394;BME280;10356;50.544;9.642;2022-10-13T02:51:14;98736.41;;;6.98;100.00
20394;BME280;10356;50.544;9.642;2022-10-13T02:53:40;98738.25;;;6.96;100.00
20394;BME280;10356;50.544;9.642;2022-10-13T02:56:07;98731.56;;;6.92;100.00
20394;BME280;10356;50.544;9.642;2022-10-13T02:58:33;98732.66;;;6.88;100.00
20394;BME280;10356;50.544;9.642;2022-10-13T03:01:04;98726.97;;;6.82;100.00
20394;BME280;10356;50.544;9.642;2022-10-13T03:03:31;98723.72;;;6.78;100.00
20394;BME280;10356;50.544;9.642;2022-10-13T03:05:57;98724.56;;;6.78;100.00
20394;BME280;10356;50.544;9.642;2022-10-13T03:08:26;98722.22;;;6.74;100.00
20394;BME280;10356;50.544;9.642;2022-10-13T03:10:52;98723.13;;;6.73;100.00
20394;BME280;10356;50.544;9.642;2022-10-13T03:13:19;98717.88;;;6.74;100.00
20394;BME280;10356;50.544;9.642;2022-10-13T03:15:46;98725.38;;;6.79;100.00
20394;BME280;10356;50.544;9.642;2022-10-13T03:18:12;98728.91;;;6.78;100.00
20394;BME280;10356;50.544;9.642;2022-10-13T03:20:39;98733.16;;;6.79;100.00
20394;BME280;10356;50.544;9.642;2022-10-13T03:23:05;98718.34;;;6.81;100.00
20394;BME280;10356;50.544;9.642;2022-10-13T03:25:34;98719.97;;;6.84;100.00
20394;BME280;10356;50.544;9.642;2022-10-13T03:28:00;98719.72;;;6.88;100.00
20394;BME280;10356;50.544;9.642;2022-10-13T03:30:27;98713.59;;;6.89;100.00
20394;BME280;10356;50.544;9.642;2022-10-13T03:32:53;98720.38;;;6.92;100.00
20394;BME280;10356;50.544;9.642;2022-10-13T03:35:20;98712.44;;;6.95;100.00
20394;BME280;10356;50.544;9.642;2022-10-13T03:37:46;98722.63;;;6.98;100.00
20394;BME280;10356;50.544;9.642;2022-10-13T03:40:13;98722.38;;;7.02;100.00
20394;BME280;10356;50.544;9.642;2022-10-13T03:42:41;98724.97;;;7.02;100.00
20394;BME280;10356;50.544;9.642;2022-10-13T03:45:08;98721.28;;;7.06;100.00
20394;BME280;10356;50.544;9.642;2022-10-13T03:47:35;98721.03;;;7.11;100.00
20394;BME280;10356;50.544;9.642;2022-10-13T03:50:02;98717.34;;;7.15;100.00
20394;BME280;10356;50.544;9.642;2022-10-13T03:52:29;98720.00;;;7.13;100.00
20394;BME280;10356;50.544;9.642;2022-10-13T03:54:55;98726.69;;;7.17;100.00
20394;BME280;10356;50.544;9.642;2022-10-13T03:57:22;98722.34;;;7.18;100.00
20394;BME280;10356;50.544;9.642;2022-10-13T03:59:50;98717.00;;;7.21;100.00
20394;BME280;10356;50.544;9.642;2022-10-13T04:02:16;98719.41;;;7.24;100.00
20394;BME280;10356;50.544;9.642;2022-10-13T04:04:43;98727.03;;;7.27;100.00
20394;BME280;10356;50.544;9.642;2022-10-13T04:07:09;98718.41;;;7.26;100.00
20394;BME280;10356;50.544;9.642;2022-10-13T04:09:36;98720.81;;;7.29;100.00
20394;BME280;10356;50.544;9.642;2022-10-13T04:12:02;98718.16;;;7.31;100.00
20394;BME280;10356;50.544;9.642;2022-10-13T04:14:29;98717.97;;;7.34;100.00
20394;BME280;10356;50.544;9.642;2022-10-13T04:16:57;98715.38;;;7.34;100.00
20394;BME280;10356;50.544;9.642;2022-10-13T04:19:23;98714.38;;;7.36;100.00
20394;BME280;10356;50.544;9.642;2022-10-13T04:21:50;98711.69;;;7.38;100.00
20394;BME280;10356;50.544;9.642;2022-10-13T04:24:17;98717.06;;;7.35;100.00
20394;BME280;10356;50.544;9.642;2022-10-13T04:26:44;98732.16;;;7.42;100.00
20394;BME280;10356;50.544;9.642;2022-10-13T04:29:11;98724.47;;;7.41;100.00
20394;BME280;10356;50.544;9.642;2022-10-13T04:31:39;98720.09;;;7.41;100.00
20394;BME280;10356;50.544;9.642;2022-10-13T04:34:08;98720.31;;;7.38;100.00
20394;BME280;10356;50.544;9.642;2022-10-13T04:36:34;98721.03;;;7.40;100.00
20394;BME280;10356;50.544;9.642;2022-10-13T04:39:01;98728.81;;;7.40;100.00
20394;BME280;10356;50.544;9.642;2022-10-13T04:41:27;98724.53;;;7.39;100.00
20394;BME280;10356;50.544;9.642;2022-10-13T04:43:54;98721.22;;;7.37;100.00
20394;BME280;10356;50.544;9.642;2022-10-13T04:46:22;98725.28;;;7.41;100.00
20394;BME280;10356;50.544;9.642;2022-10-13T04:48:50;98723.44;;;7.43;100.00
20394;BME280;10356;50.544;9.642;2022-10-13T04:51:20;98731.41;;;7.40;100.00
20394;BME280;10356;50.544;9.642;2022-10-13T04:53:46;98731.22;;;7.43;100.00
20394;BME280;10356;50.544;9.642;2022-10-13T04:56:16;98732.31;;;7.39;100.00
20394;BME280;10356;50.544;9.642;2022-10-13T04:58:44;98726.31;;;7.39;100.00
20394;BME280;10356;50.544;9.642;2022-10-13T05:01:12;98725.50;;;7.38;100.00
20394;BME280;10356;50.544;9.642;2022-10-13T05:03:40;98733.34;;;7.37;100.00
20394;BME280;10356;50.544;9.642;2022-10-13T05:06:13;98734.66;;;7.44;100.00
20394;BME280;10356;50.544;9.642;2022-10-13T05:08:41;98729.81;;;7.38;100.00
20394;BME280;10356;50.544;9.642;2022-10-13T05:11:07;98736.00;;;7.35;100.00
20394;BME280;10356;50.544;9.642;2022-10-13T05:13:34;98718.81;;;7.34;100.00
20394;BME280;10356;50.544;9.642;2022-10-13T05:16:05;98731.50;;;7.39;100.00
20394;BME280;10356;50.544;9.642;2022-10-13T05:18:31;98719.28;;;7.41;100.00
20394;BME280;10356;50.544;9.642;2022-10-13T05:21:05;98714.19;;;7.39;100.00
20394;BME280;10356;50.544;9.642;2022-10-13T05:23:32;98711.59;;;7.39;100.00
20394;BME280;10356;50.544;9.642;2022-10-13T05:26:01;98705.66;;;7.37;100.00
20394;BME280;10356;50.544;9.642;2022-10-13T05:28:28;98705.50;;;7.40;100.00
20394;BME280;10356;50.544;9.642;2022-10-13T05:30:55;98710.59;;;7.42;100.00
20394;BME280;10356;50.544;9.642;2022-10-13T05:33:21;98715.59;;;7.45;100.00
20394;BME280;10356;50.544;9.642;2022-10-13T05:35:48;98716.06;;;7.51;100.00
20394;BME280;10356;50.544;9.642;2022-10-13T05:38:14;98693.47;;;7.53;100.00
20394;BME280;10356;50.544;9.642;2022-10-13T05:40:41;98700.09;;;7.59;100.00
20394;BME280;10356;50.544;9.642;2022-10-13T05:43:09;98702.38;;;7.63;100.00
20394;BME280;10356;50.544;9.642;2022-10-13T05:45:35;98710.00;;;7.67;100.00
20394;BME280;10356;50.544;9.642;2022-10-13T05:48:01;98711.34;;;7.74;100.00
20394;BME280;10356;50.544;9.642;2022-10-13T05:50:28;98707.63;;;7.78;100.00
20394;BME280;10356;50.544;9.642;2022-10-13T05:52:55;98710.03;;;7.81;100.00
20394;BME280;10356;50.544;9.642;2022-10-13T05:55:22;98708.03;;;7.86;100.00
20394;BME280;10356;50.544;9.642;2022-10-13T05:57:49;98705.97;;;7.91;100.00
20394;BME280;10356;50.544;9.642;2022-10-13T06:00:18;98715.44;;;7.92;100.00
20394;BME280;10356;50.544;9.642;2022-10-13T06:02:49;98709.03;;;7.97;100.00
20394;BME280;10356;50.544;9.642;2022-10-13T06:05:19;98703.75;;;7.99;100.00
20394;BME280;10356;50.544;9.642;2022-10-13T06:07:47;98701.63;;;8.05;100.00
20394;BME280;10356;50.544;9.642;2022-10-13T06:10:14;98703.75;;;8.13;100.00
20394;BME280;10356;50.544;9.642;2022-10-13T06:12:40;98695.59;;;8.19;100.00
20394;BME280;10356;50.544;9.642;2022-10-13T06:15:08;98689.28;;;8.23;100.00
20394;BME280;10356;50.544;9.642;2022-10-13T06:17:36;98683.75;;;8.29;100.00
20394;BME280;10356;50.544;9.642;2022-10-13T06:20:03;98681.91;;;8.31;100.00
20394;BME280;10356;50.544;9.642;2022-10-13T06:22:30;98690.44;;;8.33;100.00
20394;BME280;10356;50.544;9.642;2022-10-13T06:24:57;98686.72;;;8.37;100.00
20394;BME280;10356;50.544;9.642;2022-10-13T06:27:23;98688.47;;;8.36;100.00
20394;BME280;10356;50.544;9.642;2022-10-13T06:29:50;98693.97;;;8.46;100.00
20394;BME280;10356;50.544;9.642;2022-10-13T06:32:16;98685.78;;;8.52;100.00
20394;BME280;10356;50.544;9.642;2022-10-13T06:34:44;98686.31;;;8.57;100.00
20394;BME280;10356;50.544;9.642;2022-10-13T06:37:10;98690.22;;;8.64;100.00
20394;BME280;10356;50.544;9.642;2022-10-13T06:39:37;98692.44;;;8.70;100.00
20394;BME280;10356;50.544;9.642;2022-10-13T06:42:04;98689.25;;;8.79;100.00
20394;BME280;10356;50.544;9.642;2022-10-13T06:44:30;98684.59;;;8.84;100.00
20394;BME280;10356;50.544;9.642;2022-10-13T06:46:57;98674.56;;;8.92;100.00
20394;BME280;10356;50.544;9.642;2022-10-13T06:49:23;98665.41;;;8.99;100.00
20394;BME280;10356;50.544;9.642;2022-10-13T06:51:51;98669.19;;;9.08;100.00
20394;BME280;10356;50.544;9.642;2022-10-13T06:54:18;98669.34;;;9.19;100.00
20394;BME280;10356;50.544;9.642;2022-10-13T06:56:44;98676.41;;;9.29;100.00
20394;BME280;10356;50.544;9.642;2022-10-13T06:59:11;98666.56;;;9.35;100.00
20394;BME280;10356;50.544;9.642;2022-10-13T07:01:37;98679.91;;;9.43;100.00
20394;BME280;10356;50.544;9.642;2022-10-13T07:04:04;98681.25;;;9.48;100.00
20394;BME280;10356;50.544;9.642;2022-10-13T07:06:31;98681.19;;;9.62;100.00
20394;BME280;10356;50.544;9.642;2022-10-13T07:09:02;98677.88;;;9.73;100.00
20394;BME280;10356;50.544;9.642;2022-10-13T07:11:28;98676.50;;;9.80;100.00
20394;BME280;10356;50.544;9.642;2022-10-13T07:13:55;98679.41;;;9.88;100.00
20394;BME280;10356;50.544;9.642;2022-10-13T07:16:21;98668.28;;;9.98;100.00
20394;BME280;10356;50.544;9.642;2022-10-13T07:18:48;98673.53;;;10.11;100.00
20394;BME280;10356;50.544;9.642;2022-10-13T07:21:15;98680.38;;;10.25;100.00
20394;BME280;10356;50.544;9.642;2022-10-13T07:23:41;98675.38;;;10.34;100.00
20394;BME280;10356;50.544;9.642;2022-10-13T07:26:10;98678.06;;;10.45;100.00
20394;BME280;10356;50.544;9.642;2022-10-13T07:28:38;98677.41;;;10.54;100.00
20394;BME280;10356;50.544;9.642;2022-10-13T07:31:08;98673.09;;;10.66;100.00
20394;BME280;10356;50.544;9.642;2022-10-13T07:33:36;98666.41;;;10.74;100.00
20394;BME280;10356;50.544;9.642;2022-10-13T07:36:03;98663.13;;;10.83;100.00
20394;BME280;10356;50.544;9.642;2022-10-13T07:38:29;98660.09;;;10.89;100.00
20394;BME280;10356;50.544;9.642;2022-10-13T07:40:59;98668.91;;;10.99;100.00
20394;BME280;10356;50.544;9.642;2022-10-13T07:43:26;98675.69;;;11.02;100.00
20394;BME280;10356;50.544;9.642;2022-10-13T07:45:53;98668.03;;;11.12;100.00
20394;BME280;10356;50.544;9.642;2022-10-13T07:48:19;98665.47;;;11.23;100.00
20394;BME280;10356;50.544;9.642;2022-10-13T07:50:46;98671.88;;;11.30;100.00
20394;BME280;10356;50.544;9.642;2022-10-13T07:53:12;98676.19;;;11.42;100.00
20394;BME280;10356;50.544;9.642;2022-10-13T07:55:39;98660.69;;;11.51;100.00
20394;BME280;10356;50.544;9.642;2022-10-13T07:58:05;98670.56;;;11.59;100.00
20394;BME280;10356;50.544;9.642;2022-10-13T08:00:33;98665.81;;;11.64;100.00
20394;BME280;10356;50.544;9.642;2022-10-13T08:03:00;98669.69;;;11.71;100.00
20394;BME280;10356;50.544;9.642;2022-10-13T08:05:26;98665.78;;;11.76;100.00
20394;BME280;10356;50.544;9.642;2022-10-13T08:07:53;98674.69;;;11.85;100.00
20394;BME280;10356;50.544;9.642;2022-10-13T08:10:19;98665.44;;;11.92;100.00
20394;BME280;10356;50.544;9.642;2022-10-13T08:12:46;98666.88;;;11.96;100.00
20394;BME280;10356;50.544;9.642;2022-10-13T08:15:13;98666.19;;;12.05;100.00
20394;BME280;10356;50.544;9.642;2022-10-13T08:17:41;98660.94;;;12.05;100.00
20394;BME280;10356;50.544;9.642;2022-10-13T08:20:08;98652.28;;;12.05;100.00
20394;BME280;10356;50.544;9.642;2022-10-13T08:22:34;98654.78;;;12.17;100.00
20394;BME280;10356;50.544;9.642;2022-10-13T08:25:01;98663.91;;;12.23;100.00
20394;BME280;10356;50.544;9.642;2022-10-13T08:27:28;98651.69;;;12.34;100.00
20394;BME280;10356;50.544;9.642;2022-10-13T08:29:55;98644.06;;;12.53;100.00
20394;BME280;10356;50.544;9.642;2022-10-13T08:32:21;98645.94;;;12.62;100.00
20394;BME280;10356;50.544;9.642;2022-10-13T08:34:49;98643.53;;;12.82;100.00
20394;BME280;10356;50.544;9.642;2022-10-13T08:37:17;98645.88;;;12.96;100.00
20394;BME280;10356;50.544;9.642;2022-10-13T08:39:46;98653.09;;;13.03;100.00
20394;BME280;10356;50.544;9.642;2022-10-13T08:42:15;98642.97;;;13.21;100.00
20394;BME280;10356;50.544;9.642;2022-10-13T08:44:44;98645.53;;;13.32;100.00
20394;BME280;10356;50.544;9.642;2022-10-13T08:47:17;98641.66;;;13.47;100.00
20394;BME280;10356;50.544;9.642;2022-10-13T08:49:46;98638.25;;;13.56;99.30
20394;BME280;10356;50.544;9.642;2022-10-13T08:52:17;98639.09;;;13.77;98.97
20394;BME280;10356;50.544;9.642;2022-10-13T08:54:44;98630.00;;;13.81;96.10
20394;BME280;10356;50.544;9.642;2022-10-13T08:57:11;98628.13;;;13.93;97.15
20394;BME280;10356;50.544;9.642;2022-10-13T08:59:38;98629.03;;;13.82;95.62
20394;BME280;10356;50.544;9.642;2022-10-13T09:02:09;98624.94;;;13.89;96.10
20394;BME280;10356;50.544;9.642;2022-10-13T09:04:40;98639.34;;;14.04;95.85
20394;BME280;10356;50.544;9.642;2022-10-13T09:07:11;98634.47;;;14.20;95.66
20394;BME280;10356;50.544;9.642;2022-10-13T09:09:41;98638.97;;;14.29;94.13
20394;BME280;10356;50.544;9.642;2022-10-13T09:12:09;98641.47;;;14.41;93.07
20394;BME280;10356;50.544;9.642;2022-10-13T09:14:38;98649.81;;;14.55;93.25
20394;BME280;10356;50.544;9.642;2022-10-13T09:17:14;98645.09;;;14.59;91.98
20394;BME280;10356;50.544;9.642;2022-10-13T09:19:40;98643.47;;;14.58;92.35
20394;BME280;10356;50.544;9.642;2022-10-13T09:22:18;98644.53;;;14.46;91.40
20394;BME280;10356;50.544;9.642;2022-10-13T09:25:03;98639.25;;;14.36;91.79
20394;BME280;10356;50.544;9.642;2022-10-13T09:27:40;98639.81;;;14.40;91.89
20394;BME280;10356;50.544;9.642;2022-10-13T09:30:28;98635.97;;;14.44;92.02
20394;BME280;10356;50.544;9.642;2022-10-13T09:33:14;98624.56;;;14.54;90.95
20394;BME280;10356;50.544;9.642;2022-10-13T09:35:43;98632.31;;;14.75;90.05
20394;BME280;10356;50.544;9.642;2022-10-13T09:38:13;98627.22;;;14.83;88.95
20394;BME280;10356;50.544;9.642;2022-10-13T09:40:42;98627.50;;;14.80;88.41
20394;BME280;10356;50.544;9.642;2022-10-13T09:43:27;98620.03;;;14.85;88.93
20394;BME280;10356;50.544;9.642;2022-10-13T09:45:54;98620.88;;;14.95;88.87
20394;BME280;10356;50.544;9.642;2022-10-13T09:48:23;98627.69;;;15.17;87.93
20394;BME280;10356;50.544;9.642;2022-10-13T09:50:52;98623.38;;;15.35;85.64
20394;BME280;10356;50.544;9.642;2022-10-13T09:53:24;98628.50;;;15.27;85.56
20394;BME280;10356;50.544;9.642;2022-10-13T09:56:09;98614.25;;;15.29;85.46
20394;BME280;10356;50.544;9.642;2022-10-13T09:58:38;98619.38;;;15.40;83.75
20394;BME280;10356;50.544;9.642;2022-10-13T10:01:15;98614.84;;;15.42;82.85
20394;BME280;10356;50.544;9.642;2022-10-13T10:03:43;98620.63;;;15.46;82.37
20394;BME280;10356;50.544;9.642;2022-10-13T10:06:13;98625.31;;;15.61;80.88
20394;BME280;10356;50.544;9.642;2022-10-13T10:08:44;98618.75;;;15.84;80.63
20394;BME280;10356;50.544;9.642;2022-10-13T10:11:18;98624.94;;;16.03;78.99
20394;BME280;10356;50.544;9.642;2022-10-13T10:13:48;98631.88;;;15.94;79.67
20394;BME280;10356;50.544;9.642;2022-10-13T10:16:19;98629.31;;;15.75;80.72
20394;BME280;10356;50.544;9.642;2022-10-13T10:18:58;98626.41;;;15.68;81.30
20394;BME280;10356;50.544;9.642;2022-10-13T10:21:30;98622.25;;;15.37;81.61
20394;BME280;10356;50.544;9.642;2022-10-13T10:24:07;98623.09;;;15.38;81.95
20394;BME280;10356;50.544;9.642;2022-10-13T10:26:50;98624.75;;;15.39;82.17
20394;BME280;10356;50.544;9.642;2022-10-13T10:29:31;98622.00;;;15.50;81.74
20394;BME280;10356;50.544;9.642;2022-10-13T10:32:10;98615.75;;;15.41;82.71
20394;BME280;10356;50.544;9.642;2022-10-13T10:34:42;98616.22;;;15.46;82.65
20394;BME280;10356;50.544;9.642;2022-10-13T10:37:28;98618.97;;;15.45;83.00
20394;BME280;10356;50.544;9.642;2022-10-13T10:40:07;98616.75;;;15.59;81.28
20394;BME280;10356;50.544;9.642;2022-10-13T10:42:51;98620.88;;;15.33;82.20
20394;BME280;10356;50.544;9.642;2022-10-13T10:45:24;98617.41;;;15.23;82.81
20394;BME280;10356;50.544;9.642;2022-10-13T10:47:54;98614.00;;;15.23;81.91
20394;BME280;10356;50.544;9.642;2022-10-13T10:50:22;98606.66;;;15.26;82.99
20394;BME280;10356;50.544;9.642;2022-10-13T10:52:55;98606.09;;;15.32;82.60
20394;BME280;10356;50.544;9.642;2022-10-13T10:55:29;98602.91;;;15.38;82.18
20394;BME280;10356;50.544;9.642;2022-10-13T10:58:05;98601.28;;;15.18;82.59
20394;BME280;10356;50.544;9.642;2022-10-13T11:00:40;98602.13;;;15.19;83.28
20394;BME280;10356;50.544;9.642;2022-10-13T11:03:18;98598.50;;;15.20;83.47
20394;BME280;10356;50.544;9.642;2022-10-13T11:05:59;98599.91;;;15.14;83.05
20394;BME280;10356;50.544;9.642;2022-10-13T11:08:29;98596.44;;;15.04;84.53
20394;BME280;10356;50.544;9.642;2022-10-13T11:11:29;98592.84;;;14.95;84.38
20394;BME280;10356;50.544;9.642;2022-10-13T11:13:59;98592.28;;;14.92;83.81
20394;BME280;10356;50.544;9.642;2022-10-13T11:16:29;98585.66;;;14.88;84.73
20394;BME280;10356;50.544;9.642;2022-10-13T11:18:58;98593.25;;;14.91;84.63
20394;BME280;10356;50.544;9.642;2022-10-13T11:24:58;98590.06;;;14.78;85.84
20394;BME280;10356;50.544;9.642;2022-10-13T11:27:35;98584.13;;;14.66;86.85
20394;BME280;10356;50.544;9.642;2022-10-13T11:30:41;98585.09;;;14.65;86.50
20394;BME280;10356;50.544;9.642;2022-10-13T11:36:35;98586.56;;;14.49;88.28
20394;BME280;10356;50.544;9.642;2022-10-13T11:39:42;98579.06;;;14.35;89.48
20394;BME280;10356;50.544;9.642;2022-10-13T11:42:43;98568.31;;;14.28;89.07
20394;BME280;10356;50.544;9.642;2022-10-13T11:45:24;98564.94;;;14.16;90.11
20394;BME280;10356;50.544;9.642;2022-10-13T11:48:16;98558.34;;;14.22;90.42
20394;BME280;10356;50.544;9.642;2022-10-13T11:51:00;98560.75;;;14.04;91.45
20394;BME280;10356;50.544;9.642;2022-10-13T11:53:32;98537.03;;;14.06;91.51
20394;BME280;10356;50.544;9.642;2022-10-13T11:56:18;98533.22;;;14.19;91.02
20394;BME280;10356;50.544;9.642;2022-10-13T11:58:45;98534.41;;;14.36;91.10
20394;BME280;10356;50.544;9.642;2022-10-13T12:01:14;98529.56;;;14.32;90.76
20394;BME280;10356;50.544;9.642;2022-10-13T12:03:42;98509.94;;;14.26;90.85
20394;BME280;10356;50.544;9.642;2022-10-13T12:06:24;98504.03;;;14.53;89.64
20394;BME280;10356;50.544;9.642;2022-10-13T12:08:59;98504.34;;;14.78;88.49
20394;BME280;10356;50.544;9.642;2022-10-13T12:11:28;98509.31;;;14.72;87.83
20394;BME280;10356;50.544;9.642;2022-10-13T12:13:55;98521.59;;;14.71;87.46
20394;BME280;10356;50.544;9.642;2022-10-13T12:16:23;98518.56;;;14.66;87.97
20394;BME280;10356;50.544;9.642;2022-10-13T12:18:50;98516.19;;;14.73;87.83
20394;BME280;10356;50.544;9.642;2022-10-13T12:21:18;98501.84;;;14.77;87.68
20394;BME280;10356;50.544;9.642;2022-10-13T12:23:46;98520.88;;;14.69;87.85
20394;BME280;10356;50.544;9.642;2022-10-13T12:26:14;98528.34;;;14.74;88.22
20394;BME280;10356;50.544;9.642;2022-10-13T12:28:47;98507.78;;;14.69;88.02
20394;BME280;10356;50.544;9.642;2022-10-13T12:31:19;98512.91;;;14.80;88.43
20394;BME280;10356;50.544;9.642;2022-10-13T12:33:58;98505.28;;;15.06;87.87
20394;BME280;10356;50.544;9.642;2022-10-13T12:36:26;98502.03;;;15.31;85.85
20394;BME280;10356;50.544;9.642;2022-10-13T12:38:57;98497.78;;;15.21;85.56
20394;BME280;10356;50.544;9.642;2022-10-13T12:41:27;98488.78;;;15.33;85.17
20394;BME280;10356;50.544;9.642;2022-10-13T12:43:54;98494.03;;;15.23;85.79
20394;BME280;10356;50.544;9.642;2022-10-13T12:46:34;98489.63;;;15.24;85.33
20394;BME280;10356;50.544;9.642;2022-10-13T12:49:05;98482.97;;;15.29;85.68
20394;BME280;10356;50.544;9.642;2022-10-13T12:51:32;98492.66;;;15.29;85.25
20394;BME280;10356;50.544;9.642;2022-10-13T12:54:06;98490.16;;;15.27;85.61
20394;BME280;10356;50.544;9.642;2022-10-13T12:56:32;98488.78;;;15.42;85.89
20394;BME280;10356;50.544;9.642;2022-10-13T12:58:59;98483.94;;;15.47;85.01
20394;BME280;10356;50.544;9.642;2022-10-13T13:01:28;98487.94;;;15.51;84.56
20394;BME280;10356;50.544;9.642;2022-10-13T13:03:58;98487.88;;;15.61;84.35
20394;BME280;10356;50.544;9.642;2022-10-13T13:06:37;98496.72;;;15.60;84.22
20394;BME280;10356;50.544;9.642;2022-10-13T13:09:19;98489.00;;;15.58;84.56
20394;BME280;10356;50.544;9.642;2022-10-13T13:11:48;98496.50;;;15.53;84.38
20394;BME280;10356;50.544;9.642;2022-10-13T13:14:39;98486.78;;;15.54;84.08
20394;BME280;10356;50.544;9.642;2022-10-13T13:17:11;98493.47;;;15.48;84.98
20394;BME280;10356;50.544;9.642;2022-10-13T13:19:38;98491.50;;;15.50;84.15
20394;BME280;10356;50.544;9.642;2022-10-13T13:22:07;98491.66;;;15.39;84.51
20394;BME280;10356;50.544;9.642;2022-10-13T13:24:33;98490.16;;;15.27;84.94